EST,Max TemperatureF,Mean TemperatureF,Min TemperatureF,Max Dew PointF,MeanDew PointF,Min DewpointF,Max Humidity, Mean Humidity, Min Humidity, Max Sea Level PressureIn, Mean Sea Level PressureIn, Min Sea Level PressureIn, Max VisibilityMiles, Mean VisibilityMiles, Min VisibilityMiles, Max Wind SpeedMPH, Mean Wind SpeedMPH, Max Gust SpeedMPH,PrecipitationIn, CloudCover, Events, WindDirDegrees
2013-2-1,46,36,25,31,15,5,70,48,25,30.46,30.34,30.09,10,10,10,25,9,33,0.00,3,,324
2013-2-2,38,31,23,34,25,14,92,73,53,30.39,30.27,30.14,10,8,0,10,3,15,0.03,6,Snow,175
2013-2-3,54,41,27,35,29,24,100,66,32,30.17,30.09,30.04,10,8,2,21,7,29,T,2,,303
2013-2-4,50,39,27,32,28,26,92,67,42,30.18,30.09,30.00,10,10,10,10,2,13,0.00,5,,189
2013-2-5,65,53,41,46,40,33,96,67,37,30.06,30.00,29.94,10,10,9,12,2,14,0.02,5,Rain,250
2013-2-6,65,50,34,41,37,33,100,66,31,30.22,30.13,30.07,10,4,0,6,1,9,0.00,3,Fog,353
2013-2-7,53,48,43,47,41,37,100,77,54,30.14,30.05,29.96,10,10,10,9,1,10,0.01,7,Rain,2
2013-2-8,57,48,39,49,42,30,100,75,50,30.27,30.06,29.93,10,6,1,23,8,30,0.08,6,Rain,322
2013-2-9,58,46,34,36,29,27,82,58,33,30.35,30.28,30.23,10,10,9,20,7,25,0.00,5,,12
2013-2-10,57,50,42,51,41,27,100,66,32,30.25,30.14,30.02,10,7,2,20,7,29,0.85,7,Rain,185
2013-2-11,58,51,44,54,47,31,93,67,40,30.15,30.07,30.01,10,9,5,15,4,24,0.16,8,Rain,198
2013-2-12,53,46,38,41,35,29,89,65,41,30.16,30.06,29.86,10,10,7,16,5,22,0.05,5,Rain,11
2013-2-13,49,46,42,46,40,34,100,85,70,30.03,29.83,29.71,10,7,1,20,6,29,0.05,8,Rain,276
2013-2-14,58,46,34,36,33,30,89,64,39,30.10,30.05,30.02,10,10,10,12,4,16,0.00,4,,278
2013-2-15,60,46,31,39,34,28,96,72,47,30.12,30.08,30.02,10,10,10,21,6,26,T,4,Fog-Rain,324
2013-2-16,42,35,27,28,19,11,70,51,32,30.21,30.10,30.05,10,10,10,24,10,32,T,4,,323
2013-2-17,47,34,21,25,15,11,84,54,23,30.32,30.25,30.21,10,10,10,14,2,21,0.00,1,,290
2013-2-18,61,44,26,29,26,23,92,61,29,30.33,30.20,30.01,10,10,10,21,7,31,0.00,4,,169
2013-2-19,55,47,39,45,33,15,96,60,24,30.23,30.06,29.97,10,8,2,25,9,33,0.49,5,Rain,232
2013-2-20,44,36,27,24,17,11,85,56,27,30.29,30.23,30.19,10,10,10,13,5,16,0.00,4,,4
2013-2-21,53,43,32,41,28,17,100,64,28,30.25,30.12,29.98,10,8,2,13,6,15,0.71,6,Rain,12
2013-2-22,49,46,42,46,44,41,100,90,80,30.11,30.05,30.01,10,6,2,18,8,23,0.37,8,Rain,199
2013-2-23,56,50,43,48,45,43,100,86,72,30.04,29.95,29.85,10,6,2,10,1,13,0.22,7,Rain,351
2013-2-24,60,46,32,41,32,27,100,65,29,30.09,30.03,29.96,10,10,7,13,4,16,0.00,0,,8
2013-2-25,57,49,41,42,31,26,74,56,38,30.04,29.93,29.78,10,10,10,14,6,21,0.00,6,,58
2013-2-26,50,46,42,46,43,35,100,81,61,29.76,29.63,29.54,10,7,2,23,10,30,0.90,8,Rain,193
2013-2-27,56,48,40,37,34,30,92,67,41,29.91,29.84,29.77,10,10,9,21,10,28,T,7,Rain,244
2013-2-28,44,41,38,31,27,25,70,62,54,30.05,29.96,29.87,10,10,10,20,8,25,0.00,8,,292